sensor_id;sensor_type;location;lat;lon;timestamp;temperature;humidity
44817;DHT22;30529;53.570;9.964;2023-03-11T00:00:13;0.60;99.90
44817;DHT22;30529;53.570;9.964;2023-03-11T00:02:45;0.60;99.90
44817;DHT22;30529;53.570;9.964;2023-03-11T00:05:16;0.60;99.90
44817;DHT22;30529;53.570;9.964;2023-03-11T00:07:43;0.70;99.90
44817;DHT22;30529;53.570;9.964;2023-03-11T00:10:14;0.70;99.90
44817;DHT22;30529;53.570;9.964;2023-03-11T00:12:40;0.70;99.90
44817;DHT22;30529;53.570;9.964;2023-03-11T00:15:07;0.70;99.90
44817;DHT22;30529;53.570;9.964;2023-03-11T00:17:33;0.60;99.90
44817;DHT22;30529;53.570;9.964;2023-03-11T00:19:59;0.70;99.90
44817;DHT22;30529;53.570;9.964;2023-03-11T00:22:25;0.70;99.90
44817;DHT22;30529;53.570;9.964;2023-03-11T00:24:51;0.70;99.90
44817;DHT22;30529;53.570;9.964;2023-03-11T00:27:17;0.70;99.90
44817;DHT22;30529;53.570;9.964;2023-03-11T00:29:43;0.70;99.90
44817;DHT22;30529;53.570;9.964;2023-03-11T00:32:09;0.70;99.90
44817;DHT22;30529;53.570;9.964;2023-03-11T00:34:35;0.70;99.90
44817;DHT22;30529;53.570;9.964;2023-03-11T00:37:01;0.70;99.90
44817;DHT22;30529;53.570;9.964;2023-03-11T00:39:27;0.70;99.90
44817;DHT22;30529;53.570;9.964;2023-03-11T00:41:53;0.70;99.90
44817;DHT22;30529;53.570;9.964;2023-03-11T00:44:21;0.60;99.90
44817;DHT22;30529;53.570;9.964;2023-03-11T00:46:48;0.70;99.90
44817;DHT22;30529;53.570;9.964;2023-03-11T00:49:14;0.70;99.90
44817;DHT22;30529;53.570;9.964;2023-03-11T00:51:40;0.70;99.90
44817;DHT22;30529;53.570;9.964;2023-03-11T00:54:06;0.70;99.90
44817;DHT22;30529;53.570;9.964;2023-03-11T00:56:32;0.70;99.90
44817;DHT22;30529;53.570;9.964;2023-03-11T00:58:58;0.70;99.90
44817;DHT22;30529;53.570;9.964;2023-03-11T01:01:24;0.70;99.90
44817;DHT22;30529;53.570;9.964;2023-03-11T01:03:55;0.70;99.90
44817;DHT22;30529;53.570;9.964;2023-03-11T01:06:20;0.80;99.90
44817;DHT22;30529;53.570;9.964;2023-03-11T01:08:47;0.70;99.90
44817;DHT22;30529;53.570;9.964;2023-03-11T01:11:13;0.70;99.90
44817;DHT22;30529;53.570;9.964;2023-03-11T01:13:39;0.70;99.90
44817;DHT22;30529;53.570;9.964;2023-03-11T01:16:05;0.70;99.90
44817;DHT22;30529;53.570;9.964;2023-03-11T01:18:33;0.70;99.90
44817;DHT22;30529;53.570;9.964;2023-03-11T01:20:59;0.70;99.90
44817;DHT22;30529;53.570;9.964;2023-03-11T01:23:28;0.70;99.90
44817;DHT22;30529;53.570;9.964;2023-03-11T01:25:54;0.70;99.90
44817;DHT22;30529;53.570;9.964;2023-03-11T01:28:20;0.60;99.90
44817;DHT22;30529;53.570;9.964;2023-03-11T01:30:46;0.60;99.90
44817;DHT22;30529;53.570;9.964;2023-03-11T01:33:16;0.70;99.90
44817;DHT22;30529;53.570;9.964;2023-03-11T01:35:43;0.60;99.90
44817;DHT22;30529;53.570;9.964;2023-03-11T01:38:09;0.60;99.90
44817;DHT22;30529;53.570;9.964;2023-03-11T01:40:39;0.60;99.90
44817;DHT22;30529;53.570;9.964;2023-03-11T01:48:49;0.70;99.90
44817;DHT22;30529;53.570;9.964;2023-03-11T01:51:39;0.60;99.90
44817;DHT22;30529;53.570;9.964;2023-03-11T01:54:12;0.60;99.90
44817;DHT22;30529;53.570;9.964;2023-03-11T01:56:40;0.60;99.90
44817;DHT22;30529;53.570;9.964;2023-03-11T01:59:09;0.60;99.90
44817;DHT22;30529;53.570;9.964;2023-03-11T02:01:44;0.60;99.90
44817;DHT22;30529;53.570;9.964;2023-03-11T02:04:14;0.70;99.90
44817;DHT22;30529;53.570;9.964;2023-03-11T02:06:40;0.60;99.90
44817;DHT22;30529;53.570;9.964;2023-03-11T02:09:06;0.60;99.90
44817;DHT22;30529;53.570;9.964;2023-03-11T02:11:33;0.50;99.90
44817;DHT22;30529;53.570;9.964;2023-03-11T02:14:02;0.50;99.90
44817;DHT22;30529;53.570;9.964;2023-03-11T02:16:29;0.50;99.90
44817;DHT22;30529;53.570;9.964;2023-03-11T02:18:58;0.50;99.90
44817;DHT22;30529;53.570;9.964;2023-03-11T02:21:28;0.60;99.90
44817;DHT22;30529;53.570;9.964;2023-03-11T02:29:24;0.80;99.90
44817;DHT22;30529;53.570;9.964;2023-03-11T02:31:51;0.80;99.90
44817;DHT22;30529;53.570;9.964;2023-03-11T02:34:25;0.80;99.90
44817;DHT22;30529;53.570;9.964;2023-03-11T02:36:51;0.80;99.90
44817;DHT22;30529;53.570;9.964;2023-03-11T02:39:35;0.80;99.90
44817;DHT22;30529;53.570;9.964;2023-03-11T02:42:21;0.80;99.90
44817;DHT22;30529;53.570;9.964;2023-03-11T02:44:57;0.80;99.90
44817;DHT22;30529;53.570;9.964;2023-03-11T02:47:24;0.80;99.90
44817;DHT22;30529;53.570;9.964;2023-03-11T02:49:52;0.80;99.90
44817;DHT22;30529;53.570;9.964;2023-03-11T02:52:19;0.80;99.90
44817;DHT22;30529;53.570;9.964;2023-03-11T02:54:45;0.80;99.90
44817;DHT22;30529;53.570;9.964;2023-03-11T02:57:11;0.70;99.90
44817;DHT22;30529;53.570;9.964;2023-03-11T02:59:37;0.70;99.90
44817;DHT22;30529;53.570;9.964;2023-03-11T03:02:04;0.60;99.90
44817;DHT22;30529;53.570;9.964;2023-03-11T03:04:30;0.60;99.90
44817;DHT22;30529;53.570;9.964;2023-03-11T03:06:56;0.60;99.90
44817;DHT22;30529;53.570;9.964;2023-03-11T03:09:22;0.60;99.90
44817;DHT22;30529;53.570;9.964;2023-03-11T03:11:48;0.60;99.90
44817;DHT22;30529;53.570;9.964;2023-03-11T03:14:14;0.60;99.90
44817;DHT22;30529;53.570;9.964;2023-03-11T03:16:40;0.60;99.90
44817;DHT22;30529;53.570;9.964;2023-03-11T03:19:06;0.60;99.90
44817;DHT22;30529;53.570;9.964;2023-03-11T03:21:32;0.60;99.90
44817;DHT22;30529;53.570;9.964;2023-03-11T03:23:58;0.50;99.90
44817;DHT22;30529;53.570;9.964;2023-03-11T03:26:24;0.40;99.90
44817;DHT22;30529;53.570;9.964;2023-03-11T03:28:50;0.50;99.90
44817;DHT22;30529;53.570;9.964;2023-03-11T03:31:16;0.40;99.90
44817;DHT22;30529;53.570;9.964;2023-03-11T03:33:42;0.40;99.90
44817;DHT22;30529;53.570;9.964;2023-03-11T03:36:11;0.50;99.90
44817;DHT22;30529;53.570;9.964;2023-03-11T03:38:37;0.50;99.90
44817;DHT22;30529;53.570;9.964;2023-03-11T03:41:03;0.50;99.90
44817;DHT22;30529;53.570;9.964;2023-03-11T03:43:29;0.50;99.90
44817;DHT22;30529;53.570;9.964;2023-03-11T03:46:01;0.50;99.90
44817;DHT22;30529;53.570;9.964;2023-03-11T03:48:27;0.50;99.90
44817;DHT22;30529;53.570;9.964;2023-03-11T03:50:54;0.60;99.90
44817;DHT22;30529;53.570;9.964;2023-03-11T03:53:19;0.60;99.90
44817;DHT22;30529;53.570;9.964;2023-03-11T03:55:45;0.60;99.90
44817;DHT22;30529;53.570;9.964;2023-03-11T03:58:11;0.60;99.90
44817;DHT22;30529;53.570;9.964;2023-03-11T04:00:38;0.60;99.90
44817;DHT22;30529;53.570;9.964;2023-03-11T04:03:05;0.60;99.90
44817;DHT22;30529;53.570;9.964;2023-03-11T04:05:32;0.60;99.90
44817;DHT22;30529;53.570;9.964;2023-03-11T04:07:58;0.50;99.90
44817;DHT22;30529;53.570;9.964;2023-03-11T04:10:25;0.50;99.90
44817;DHT22;30529;53.570;9.964;2023-03-11T04:12:51;0.50;99.90
44817;DHT22;30529;53.570;9.964;2023-03-11T04:15:17;0.60;99.90
44817;DHT22;30529;53.570;9.964;2023-03-11T04:17:43;0.60;99.90
44817;DHT22;30529;53.570;9.964;2023-03-11T04:20:10;0.60;99.90
44817;DHT22;30529;53.570;9.964;2023-03-11T04:22:39;0.70;99.90
44817;DHT22;30529;53.570;9.964;2023-03-11T04:25:06;0.60;99.90
44817;DHT22;30529;53.570;9.964;2023-03-11T04:27:32;0.50;99.90
44817;DHT22;30529;53.570;9.964;2023-03-11T04:29:58;0.60;99.90
44817;DHT22;30529;53.570;9.964;2023-03-11T04:32:24;0.50;99.90
44817;DHT22;30529;53.570;9.964;2023-03-11T04:34:50;0.50;99.90
44817;DHT22;30529;53.570;9.964;2023-03-11T04:37:16;0.50;99.90
44817;DHT22;30529;53.570;9.964;2023-03-11T04:39:42;0.30;99.90
44817;DHT22;30529;53.570;9.964;2023-03-11T04:42:08;0.30;99.90
44817;DHT22;30529;53.570;9.964;2023-03-11T04:44:34;0.20;99.90
44817;DHT22;30529;53.570;9.964;2023-03-11T04:47:01;0.30;99.90
44817;DHT22;30529;53.570;9.964;2023-03-11T04:49:27;0.20;99.90
44817;DHT22;30529;53.570;9.964;2023-03-11T04:51:52;0.10;99.90
44817;DHT22;30529;53.570;9.964;2023-03-11T04:54:18;0.10;99.90
44817;DHT22;30529;53.570;9.964;2023-03-11T04:56:44;0.10;99.90
44817;DHT22;30529;53.570;9.964;2023-03-11T04:59:10;0.10;99.90
44817;DHT22;30529;53.570;9.964;2023-03-11T05:01:36;0.20;99.90
44817;DHT22;30529;53.570;9.964;2023-03-11T05:04:02;0.20;99.90
44817;DHT22;30529;53.570;9.964;2023-03-11T05:06:28;0.00;99.90
44817;DHT22;30529;53.570;9.964;2023-03-11T05:08:55;0.00;99.90
44817;DHT22;30529;53.570;9.964;2023-03-11T05:11:20;-0.10;99.90
44817;DHT22;30529;53.570;9.964;2023-03-11T05:13:46;-0.20;99.90
44817;DHT22;30529;53.570;9.964;2023-03-11T05:16:12;-0.30;99.90
44817;DHT22;30529;53.570;9.964;2023-03-11T05:18:39;-0.30;99.90
44817;DHT22;30529;53.570;9.964;2023-03-11T05:21:05;-0.30;99.90
44817;DHT22;30529;53.570;9.964;2023-03-11T05:23:31;-0.30;99.90
44817;DHT22;30529;53.570;9.964;2023-03-11T05:25:57;-0.40;99.90
44817;DHT22;30529;53.570;9.964;2023-03-11T05:28:23;-0.30;99.90
44817;DHT22;30529;53.570;9.964;2023-03-11T05:30:49;-0.40;99.90
44817;DHT22;30529;53.570;9.964;2023-03-11T05:33:15;-0.40;99.90
44817;DHT22;30529;53.570;9.964;2023-03-11T05:35:41;-0.50;99.90
44817;DHT22;30529;53.570;9.964;2023-03-11T05:38:08;-0.50;99.90
44817;DHT22;30529;53.570;9.964;2023-03-11T05:40:33;-0.60;99.90
44817;DHT22;30529;53.570;9.964;2023-03-11T05:43:00;-0.60;99.90
44817;DHT22;30529;53.570;9.964;2023-03-11T05:45:26;-0.60;99.90
44817;DHT22;30529;53.570;9.964;2023-03-11T05:47:52;-0.70;99.90
44817;DHT22;30529;53.570;9.964;2023-03-11T05:50:18;-0.70;99.90
44817;DHT22;30529;53.570;9.964;2023-03-11T05:52:44;-0.70;99.90
44817;DHT22;30529;53.570;9.964;2023-03-11T05:55:10;-0.70;99.90
44817;DHT22;30529;53.570;9.964;2023-03-11T05:57:38;-0.70;99.90
44817;DHT22;30529;53.570;9.964;2023-03-11T06:00:06;-0.70;99.90
44817;DHT22;30529;53.570;9.964;2023-03-11T06:02:39;-0.70;99.90
44817;DHT22;30529;53.570;9.964;2023-03-11T06:05:06;-0.70;99.90
44817;DHT22;30529;53.570;9.964;2023-03-11T06:07:34;-0.60;99.90
44817;DHT22;30529;53.570;9.964;2023-03-11T06:10:01;-0.70;99.90
44817;DHT22;30529;53.570;9.964;2023-03-11T06:12:27;-0.70;99.90
44817;DHT22;30529;53.570;9.964;2023-03-11T06:14:53;-0.70;99.90
44817;DHT22;30529;53.570;9.964;2023-03-11T06:17:19;-0.70;99.90
44817;DHT22;30529;53.570;9.964;2023-03-11T06:19:45;-0.70;99.90
44817;DHT22;30529;53.570;9.964;2023-03-11T06:22:11;-0.70;99.90
44817;DHT22;30529;53.570;9.964;2023-03-11T06:24:37;-0.60;99.90
44817;DHT22;30529;53.570;9.964;2023-03-11T06:27:03;-0.60;99.90
44817;DHT22;30529;53.570;9.964;2023-03-11T06:29:29;-0.60;99.90
44817;DHT22;30529;53.570;9.964;2023-03-11T06:31:55;-0.50;99.90
44817;DHT22;30529;53.570;9.964;2023-03-11T06:34:21;-0.50;99.90
44817;DHT22;30529;53.570;9.964;2023-03-11T06:36:48;-0.50;99.90
44817;DHT22;30529;53.570;9.964;2023-03-11T06:39:14;-0.50;99.90
44817;DHT22;30529;53.570;9.964;2023-03-11T06:41:41;-0.40;99.90
44817;DHT22;30529;53.570;9.964;2023-03-11T06:44:09;-0.40;99.90
44817;DHT22;30529;53.570;9.964;2023-03-11T06:46:35;-0.40;99.90
44817;DHT22;30529;53.570;9.964;2023-03-11T06:49:01;-0.40;99.90
44817;DHT22;30529;53.570;9.964;2023-03-11T06:51:28;-0.40;99.90
44817;DHT22;30529;53.570;9.964;2023-03-11T06:53:54;-0.30;99.90
44817;DHT22;30529;53.570;9.964;2023-03-11T06:56:22;-0.30;99.90
44817;DHT22;30529;53.570;9.964;2023-03-11T06:58:48;-0.30;99.90
44817;DHT22;30529;53.570;9.964;2023-03-11T07:01:16;-0.30;99.90
44817;DHT22;30529;53.570;9.964;2023-03-11T07:03:45;-0.30;99.90
44817;DHT22;30529;53.570;9.964;2023-03-11T07:06:13;-0.20;99.90
44817;DHT22;30529;53.570;9.964;2023-03-11T07:08:40;-0.20;99.90
44817;DHT22;30529;53.570;9.964;2023-03-11T07:11:12;-0.20;99.90
44817;DHT22;30529;53.570;9.964;2023-03-11T07:13:39;-0.20;99.90
44817;DHT22;30529;53.570;9.964;2023-03-11T07:16:08;-0.20;99.90
44817;DHT22;30529;53.570;9.964;2023-03-11T07:18:35;-0.10;99.90
44817;DHT22;30529;53.570;9.964;2023-03-11T07:21:04;-0.10;99.90
44817;DHT22;30529;53.570;9.964;2023-03-11T07:23:31;0.00;99.90
44817;DHT22;30529;53.570;9.964;2023-03-11T07:25:58;0.00;99.90
44817;DHT22;30529;53.570;9.964;2023-03-11T07:28:25;0.00;99.90
44817;DHT22;30529;53.570;9.964;2023-03-11T07:30:51;0.00;99.90
44817;DHT22;30529;53.570;9.964;2023-03-11T07:33:18;0.10;99.90
44817;DHT22;30529;53.570;9.964;2023-03-11T07:35:44;0.10;99.90
44817;DHT22;30529;53.570;9.964;2023-03-11T07:38:11;0.10;99.90
44817;DHT22;30529;53.570;9.964;2023-03-11T07:40:37;0.20;99.90
44817;DHT22;30529;53.570;9.964;2023-03-11T07:43:03;0.20;99.90
44817;DHT22;30529;53.570;9.964;2023-03-11T07:45:29;0.30;99.90
44817;DHT22;30529;53.570;9.964;2023-03-11T07:47:55;0.30;99.90
44817;DHT22;30529;53.570;9.964;2023-03-11T07:50:21;0.30;99.90
44817;DHT22;30529;53.570;9.964;2023-03-11T07:52:47;0.30;99.90
44817;DHT22;30529;53.570;9.964;2023-03-11T07:55:14;0.40;99.90
44817;DHT22;30529;53.570;9.964;2023-03-11T07:57:40;0.40;99.90
44817;DHT22;30529;53.570;9.964;2023-03-11T08:00:08;0.40;99.90
44817;DHT22;30529;53.570;9.964;2023-03-11T08:02:35;0.40;99.90
44817;DHT22;30529;53.570;9.964;2023-03-11T08:05:01;0.40;99.90
44817;DHT22;30529;53.570;9.964;2023-03-11T08:07:30;0.50;99.90
44817;DHT22;30529;53.570;9.964;2023-03-11T08:09:56;0.50;99.90
44817;DHT22;30529;53.570;9.964;2023-03-11T08:12:22;0.50;99.90
44817;DHT22;30529;53.570;9.964;2023-03-11T08:14:48;0.50;99.90
44817;DHT22;30529;53.570;9.964;2023-03-11T08:17:14;0.60;99.90
44817;DHT22;30529;53.570;9.964;2023-03-11T08:19:40;0.70;99.90
44817;DHT22;30529;53.570;9.964;2023-03-11T08:22:06;0.60;99.90
44817;DHT22;30529;53.570;9.964;2023-03-11T08:24:32;0.70;99.90
44817;DHT22;30529;53.570;9.964;2023-03-11T08:26:58;0.70;99.90
44817;DHT22;30529;53.570;9.964;2023-03-11T08:29:24;0.70;99.90
44817;DHT22;30529;53.570;9.964;2023-03-11T08:31:50;0.70;99.90
44817;DHT22;30529;53.570;9.964;2023-03-11T08:34:16;0.70;99.90
44817;DHT22;30529;53.570;9.964;2023-03-11T08:36:42;0.70;99.90
44817;DHT22;30529;53.570;9.964;2023-03-11T08:39:08;0.80;99.90
44817;DHT22;30529;53.570;9.964;2023-03-11T08:41:34;0.80;99.90
44817;DHT22;30529;53.570;9.964;2023-03-11T08:44:01;0.90;99.90
44817;DHT22;30529;53.570;9.964;2023-03-11T08:46:33;0.90;99.90
44817;DHT22;30529;53.570;9.964;2023-03-11T08:49:00;0.90;99.90
44817;DHT22;30529;53.570;9.964;2023-03-11T08:51:31;0.90;99.90
44817;DHT22;30529;53.570;9.964;2023-03-11T08:53:58;1.00;99.90
44817;DHT22;30529;53.570;9.964;2023-03-11T08:56:24;1.00;99.90
44817;DHT22;30529;53.570;9.964;2023-03-11T08:58:50;1.00;99.90
44817;DHT22;30529;53.570;9.964;2023-03-11T09:01:16;1.10;99.90
44817;DHT22;30529;53.570;9.964;2023-03-11T09:03:43;1.10;99.90
44817;DHT22;30529;53.570;9.964;2023-03-11T09:06:12;1.10;99.90
44817;DHT22;30529;53.570;9.964;2023-03-11T09:08:41;1.10;99.90
44817;DHT22;30529;53.570;9.964;2023-03-11T09:11:07;1.20;99.90
44817;DHT22;30529;53.570;9.964;2023-03-11T09:13:33;1.20;99.90
44817;DHT22;30529;53.570;9.964;2023-03-11T09:16:00;1.20;99.90
44817;DHT22;30529;53.570;9.964;2023-03-11T09:18:29;1.30;99.90
44817;DHT22;30529;53.570;9.964;2023-03-11T09:20:55;1.30;99.90
44817;DHT22;30529;53.570;9.964;2023-03-11T09:23:23;1.40;99.90
44817;DHT22;30529;53.570;9.964;2023-03-11T09:25:49;1.40;99.90
44817;DHT22;30529;53.570;9.964;2023-03-11T09:28:15;1.40;99.90
44817;DHT22;30529;53.570;9.964;2023-03-11T09:30:41;1.50;99.90
44817;DHT22;30529;53.570;9.964;2023-03-11T09:33:07;1.50;99.90
44817;DHT22;30529;53.570;9.964;2023-03-11T09:35:33;1.50;99.90
44817;DHT22;30529;53.570;9.964;2023-03-11T09:37:59;1.50;99.90
44817;DHT22;30529;53.570;9.964;2023-03-11T09:40:27;1.50;99.90
44817;DHT22;30529;53.570;9.964;2023-03-11T09:43:22;1.60;99.90
44817;DHT22;30529;53.570;9.964;2023-03-11T09:45:59;1.70;99.90
44817;DHT22;30529;53.570;9.964;2023-03-11T09:48:51;1.70;99.90
44817;DHT22;30529;53.570;9.964;2023-03-11T09:51:24;1.70;99.90
44817;DHT22;30529;53.570;9.964;2023-03-11T09:54:12;1.70;99.90
44817;DHT22;30529;53.570;9.964;2023-03-11T09:56:39;1.70;99.90
44817;DHT22;30529;53.570;9.964;2023-03-11T09:59:14;1.80;99.90
44817;DHT22;30529;53.570;9.964;2023-03-11T10:01:44;1.80;99.90
44817;DHT22;30529;53.570;9.964;2023-03-11T10:04:19;1.90;99.90
44817;DHT22;30529;53.570;9.964;2023-03-11T10:06:47;1.90;99.90
44817;DHT22;30529;53.570;9.964;2023-03-11T10:12:11;2.00;99.90
44817;DHT22;30529;53.570;9.964;2023-03-11T10:15:01;2.00;99.90
44817;DHT22;30529;53.570;9.964;2023-03-11T10:20:53;2.10;99.90
44817;DHT22;30529;53.570;9.964;2023-03-11T10:26:27;2.10;99.90
44817;DHT22;30529;53.570;9.964;2023-03-11T10:32:19;2.20;99.90
44817;DHT22;30529;53.570;9.964;2023-03-11T10:34:56;2.30;99.90
44817;DHT22;30529;53.570;9.964;2023-03-11T10:37:26;2.40;99.90
44817;DHT22;30529;53.570;9.964;2023-03-11T10:39:54;2.40;99.90
44817;DHT22;30529;53.570;9.964;2023-03-11T10:42:25;2.40;99.90
44817;DHT22;30529;53.570;9.964;2023-03-11T10:44:52;2.50;99.90
44817;DHT22;30529;53.570;9.964;2023-03-11T10:47:21;2.50;99.90
44817;DHT22;30529;53.570;9.964;2023-03-11T10:49:48;2.50;99.90
44817;DHT22;30529;53.570;9.964;2023-03-11T10:52:14;2.60;99.90
44817;DHT22;30529;53.570;9.964;2023-03-11T10:54:43;2.60;99.90
44817;DHT22;30529;53.570;9.964;2023-03-11T10:57:36;2.60;99.90
44817;DHT22;30529;53.570;9.964;2023-03-11T11:00:06;2.60;99.90
44817;DHT22;30529;53.570;9.964;2023-03-11T11:02:50;2.70;99.90
44817;DHT22;30529;53.570;9.964;2023-03-11T11:07:47;2.80;99.90
44817;DHT22;30529;53.570;9.964;2023-03-11T11:10:20;2.80;99.90
44817;DHT22;30529;53.570;9.964;2023-03-11T11:15:33;2.90;99.90
44817;DHT22;30529;53.570;9.964;2023-03-11T11:18:05;2.90;99.90
44817;DHT22;30529;53.570;9.964;2023-03-11T11:20:33;2.90;99.90
44817;DHT22;30529;53.570;9.964;2023-03-11T11:23:01;3.00;99.90
44817;DHT22;30529;53.570;9.964;2023-03-11T11:25:35;3.00;99.90
44817;DHT22;30529;53.570;9.964;2023-03-11T11:28:15;3.10;99.90
44817;DHT22;30529;53.570;9.964;2023-03-11T11:31:02;3.10;99.90
44817;DHT22;30529;53.570;9.964;2023-03-11T11:33:39;3.20;99.90
44817;DHT22;30529;53.570;9.964;2023-03-11T11:36:14;3.30;99.90
44817;DHT22;30529;53.570;9.964;2023-03-11T11:38:41;3.40;99.90
44817;DHT22;30529;53.570;9.964;2023-03-11T11:41:15;3.50;99.90
44817;DHT22;30529;53.570;9.964;2023-03-11T11:49:16;3.40;99.90
44817;DHT22;30529;53.570;9.964;2023-03-11T11:51:48;3.30;99.90
44817;DHT22;30529;53.570;9.964;2023-03-11T11:54:24;3.40;99.90
44817;DHT22;30529;53.570;9.964;2023-03-11T11:56:54;3.40;99.90
44817;DHT22;30529;53.570;9.964;2023-03-11T11:59:21;3.50;99.90
44817;DHT22;30529;53.570;9.964;2023-03-11T12:01:57;3.70;99.90
44817;DHT22;30529;53.570;9.964;2023-03-11T12:07:41;4.10;99.90
44817;DHT22;30529;53.570;9.964;2023-03-11T12:15:55;4.70;99.90
44817;DHT22;30529;53.570;9.964;2023-03-11T12:18:28;4.70;99.90
44817;DHT22;30529;53.570;9.964;2023-03-11T12:20:55;4.60;99.90
44817;DHT22;30529;53.570;9.964;2023-03-11T12:23:50;4.60;99.90
44817;DHT22;30529;53.570;9.964;2023-03-11T12:26:23;4.70;99.90
44817;DHT22;30529;53.570;9.964;2023-03-11T12:29:06;4.80;99.90
44817;DHT22;30529;53.570;9.964;2023-03-11T12:31:36;5.00;99.90
44817;DHT22;30529;53.570;9.964;2023-03-11T12:34:05;5.20;99.90
44817;DHT22;30529;53.570;9.964;2023-03-11T12:36:33;5.30;99.90
44817;DHT22;30529;53.570;9.964;2023-03-11T12:39:03;5.60;99.90
44817;DHT22;30529;53.570;9.964;2023-03-11T12:41:39;5.70;99.90
44817;DHT22;30529;53.570;9.964;2023-03-11T12:44:24;5.70;99.90
44817;DHT22;30529;53.570;9.964;2023-03-11T12:54:40;5.70;99.90
44817;DHT22;30529;53.570;9.964;2023-03-11T13:05:26;5.80;99.90
44817;DHT22;30529;53.570;9.964;2023-03-11T13:07:58;5.80;99.90
44817;DHT22;30529;53.570;9.964;2023-03-11T13:10:40;5.90;99.90
44817;DHT22;30529;53.570;9.964;2023-03-11T13:13:36;5.80;99.90
44817;DHT22;30529;53.570;9.964;2023-03-11T13:18:52;5.90;99.90
44817;DHT22;30529;53.570;9.964;2023-03-11T13:43:04;5.50;99.90
44817;DHT22;30529;53.570;9.964;2023-03-11T13:45:35;5.50;99.90
44817;DHT22;30529;53.570;9.964;2023-03-11T13:48:17;5.70;99.90
44817;DHT22;30529;53.570;9.964;2023-03-11T13:50:49;5.90;99.90
44817;DHT22;30529;53.570;9.964;2023-03-11T13:53:20;6.00;99.90
44817;DHT22;30529;53.570;9.964;2023-03-11T13:55:51;5.80;99.90
44817;DHT22;30529;53.570;9.964;2023-03-11T13:58:24;5.80;99.90
44817;DHT22;30529;53.570;9.964;2023-03-11T14:00:59;5.90;99.90
44817;DHT22;30529;53.570;9.964;2023-03-11T14:03:28;5.90;99.90
44817;DHT22;30529;53.570;9.964;2023-03-11T14:05:59;5.90;99.90
44817;DHT22;30529;53.570;9.964;2023-03-11T14:08:28;5.90;99.90
44817;DHT22;30529;53.570;9.964;2023-03-11T14:11:02;6.00;99.90
44817;DHT22;30529;53.570;9.964;2023-03-11T14:13:30;6.10;99.90
44817;DHT22;30529;53.570;9.964;2023-03-11T14:16:01;6.40;99.90
44817;DHT22;30529;53.570;9.964;2023-03-11T14:18:35;6.40;99.90
44817;DHT22;30529;53.570;9.964;2023-03-11T14:21:03;6.50;99.90
44817;DHT22;30529;53.570;9.964;2023-03-11T14:23:33;6.50;99.90
44817;DHT22;30529;53.570;9.964;2023-03-11T14:26:06;6.40;99.90
44817;DHT22;30529;53.570;9.964;2023-03-11T14:28:36;6.00;99.90
44817;DHT22;30529;53.570;9.964;2023-03-11T14:31:04;5.80;99.90
44817;DHT22;30529;53.570;9.964;2023-03-11T14:33:30;5.50;99.90
44817;DHT22;30529;53.570;9.964;2023-03-11T14:35:59;5.30;99.90
44817;DHT22;30529;53.570;9.964;2023-03-11T14:38:29;5.20;99.90
44817;DHT22;30529;53.570;9.964;2023-03-11T14:41:00;5.00;99.90
44817;DHT22;30529;53.570;9.964;2023-03-11T14:43:38;4.90;99.90
44817;DHT22;30529;53.570;9.964;2023-03-11T14:46:06;5.00;99.90
44817;DHT22;30529;53.570;9.964;2023-03-11T14:48:37;5.30;99.90
44817;DHT22;30529;53.570;9.964;2023-03-11T14:51:09;5.40;99.90
44817;DHT22;30529;53.570;9.964;2023-03-11T14:53:47;5.50;99.90
44817;DHT22;30529;53.570;9.964;2023-03-11T14:56:19;5.50;99.90
44817;DHT22;30529;53.570;9.964;2023-03-11T14:59:03;5.50;99.90
44817;DHT22;30529;53.570;9.964;2023-03-11T15:01:37;5.40;99.90
44817;DHT22;30529;53.570;9.964;2023-03-11T15:04:13;5.30;99.90
44817;DHT22;30529;53.570;9.964;2023-03-11T15:06:46;5.40;99.90
44817;DHT22;30529;53.570;9.964;2023-03-11T15:09:15;5.50;99.90
44817;DHT22;30529;53.570;9.964;2023-03-11T15:14:34;5.70;99.90
44817;DHT22;30529;53.570;9.964;2023-03-11T15:17:17;5.70;99.90
44817;DHT22;30529;53.570;9.964;2023-03-11T15:19:44;5.70;99.90
44817;DHT22;30529;53.570;9.964;2023-03-11T15:22:39;5.70;99.90
44817;DHT22;30529;53.570;9.964;2023-03-11T15:25:17;5.50;99.90
44817;DHT22;30529;53.570;9.964;2023-03-11T15:27:44;5.50;99.90
44817;DHT22;30529;53.570;9.964;2023-03-11T15:30:25;5.30;99.90
44817;DHT22;30529;53.570;9.964;2023-03-11T15:32:52;5.30;99.90
44817;DHT22;30529;53.570;9.964;2023-03-11T15:35:21;5.30;99.90
44817;DHT22;30529;53.570;9.964;2023-03-11T15:37:49;5.40;99.90
44817;DHT22;30529;53.570;9.964;2023-03-11T15:40:28;5.60;99.90
44817;DHT22;30529;53.570;9.964;2023-03-11T15:43:20;5.70;99.90
44817;DHT22;30529;53.570;9.964;2023-03-11T15:45:49;5.70;99.90
44817;DHT22;30529;53.570;9.964;2023-03-11T15:48:18;5.70;99.90
44817;DHT22;30529;53.570;9.964;2023-03-11T15:50:55;5.50;99.90
44817;DHT22;30529;53.570;9.964;2023-03-11T15:53:23;5.40;99.90
44817;DHT22;30529;53.570;9.964;2023-03-11T15:55:51;5.20;99.90
44817;DHT22;30529;53.570;9.964;2023-03-11T15:58:18;5.10;99.90
44817;DHT22;30529;53.570;9.964;2023-03-11T16:00:49;5.10;99.90
44817;DHT22;30529;53.570;9.964;2023-03-11T16:03:16;5.00;99.90
44817;DHT22;30529;53.570;9.964;2023-03-11T16:05:42;4.80;99.90
44817;DHT22;30529;53.570;9.964;2023-03-11T16:08:08;4.70;99.90
44817;DHT22;30529;53.570;9.964;2023-03-11T16:10:34;4.60;99.90
44817;DHT22;30529;53.570;9.964;2023-03-11T16:13:00;4.30;99.90
44817;DHT22;30529;53.570;9.964;2023-03-11T16:15:29;4.20;99.90
44817;DHT22;30529;53.570;9.964;2023-03-11T16:17:58;4.20;99.90
44817;DHT22;30529;53.570;9.964;2023-03-11T16:20:27;4.20;99.90
44817;DHT22;30529;53.570;9.964;2023-03-11T16:22:55;4.00;99.90
44817;DHT22;30529;53.570;9.964;2023-03-11T16:25:27;3.90;99.90
44817;DHT22;30529;53.570;9.964;2023-03-11T16:27:55;3.80;99.90
44817;DHT22;30529;53.570;9.964;2023-03-11T16:30:22;3.60;99.90
44817;DHT22;30529;53.570;9.964;2023-03-11T16:32:48;3.50;99.90
44817;DHT22;30529;53.570;9.964;2023-03-11T16:35:14;3.40;99.90
44817;DHT22;30529;53.570;9.964;2023-03-11T16:37:40;3.30;99.90
44817;DHT22;30529;53.570;9.964;2023-03-11T16:40:17;3.20;99.90
44817;DHT22;30529;53.570;9.964;2023-03-11T16:42:44;3.20;99.90
44817;DHT22;30529;53.570;9.964;2023-03-11T16:45:12;3.10;99.90
44817;DHT22;30529;53.570;9.964;2023-03-11T16:47:38;3.10;99.90
44817;DHT22;30529;53.570;9.964;2023-03-11T16:50:05;3.10;99.90
44817;DHT22;30529;53.570;9.964;2023-03-11T16:52:31;3.00;99.90
44817;DHT22;30529;53.570;9.964;2023-03-11T16:54:57;3.10;99.90
44817;DHT22;30529;53.570;9.964;2023-03-11T16:57:23;3.00;99.90
44817;DHT22;30529;53.570;9.964;2023-03-11T16:59:50;3.00;99.90
44817;DHT22;30529;53.570;9.964;2023-03-11T17:02:17;2.90;99.90
44817;DHT22;30529;53.570;9.964;2023-03-11T17:04:43;2.80;99.90
44817;DHT22;30529;53.570;9.964;2023-03-11T17:07:09;2.80;99.90
44817;DHT22;30529;53.570;9.964;2023-03-11T17:09:36;2.80;99.90
44817;DHT22;30529;53.570;9.964;2023-03-11T17:12:03;2.70;99.90
44817;DHT22;30529;53.570;9.964;2023-03-11T17:14:29;2.70;99.90
44817;DHT22;30529;53.570;9.964;2023-03-11T17:16:57;2.70;99.90
44817;DHT22;30529;53.570;9.964;2023-03-11T17:19:23;2.70;99.90
44817;DHT22;30529;53.570;9.964;2023-03-11T17:21:50;2.70;99.90